Time;durP1;ratioP1;P1;durP2;ratioP2;P2;SDS_P1;SDS_P2;PMS_P1;PMS_P2;Temp;Humidity;BMP_temperature;BMP_pressure;BME280_temperature;BME280_humidity;BME280_pressure;Samples;Min_cycle;Max_cycle;Signal;HPM_P1;HPM_P2
2022/03/29 00:00:57;;;;;;;20.60;13.23;;;;;;;-148.33;100.00;56587.81;5068502;28;20043;-56
2022/03/29 00:03:23;;;;;;;20.42;12.82;;;;;;;-148.33;100.00;56587.81;5067817;28;20056;-57
2022/03/29 00:05:48;;;;;;;17.17;12.57;;;;;;;-148.33;100.00;56587.81;5068025;28;20063;-57
2022/03/29 00:08:13;;;;;;;19.88;13.32;;;;;;;-148.33;100.00;56587.81;5067473;28;20012;-58
2022/03/29 00:10:39;;;;;;;18.70;13.35;;;;;;;-148.33;100.00;56587.81;5068223;28;20665;-57
2022/03/29 00:13:04;;;;;;;24.48;14.10;;;;;;;-148.33;100.00;56587.81;5050075;28;20032;-54
2022/03/29 00:15:30;;;;;;;20.85;14.27;;;;;;;-148.33;100.00;56587.81;5067757;28;20078;-59
2022/03/29 00:17:55;;;;;;;21.17;14.52;;;;;;;-148.33;100.00;56587.81;5067692;28;20427;-56
2022/03/29 00:20:21;;;;;;;22.33;13.68;;;;;;;-148.33;100.00;56587.81;5049696;28;20119;-57
2022/03/29 00:22:47;;;;;;;21.15;13.48;;;;;;;-148.33;100.00;56587.81;5067848;28;20028;-57
2022/03/29 00:25:14;;;;;;;20.25;13.38;;;;;;;-148.33;100.00;56587.81;5067561;28;20034;-56
2022/03/29 00:27:39;;;;;;;23.45;15.30;;;;;;;-148.33;100.00;56587.81;5067845;28;20085;-58
2022/03/29 00:30:07;;;;;;;20.80;14.80;;;;;;;-148.33;100.00;56587.81;5067952;28;20024;-58
2022/03/29 00:32:33;;;;;;;19.23;14.00;;;;;;;-148.33;100.00;56587.81;5067709;28;20020;-54
2022/03/29 00:34:59;;;;;;;21.98;15.85;;;;;;;-148.33;100.00;56587.81;5067602;28;20509;-57
2022/03/29 00:37:24;;;;;;;20.33;14.50;;;;;;;-148.33;100.00;56587.81;5067314;28;20135;-57
2022/03/29 00:39:50;;;;;;;23.20;15.32;;;;;;;-148.33;100.00;56587.81;5068883;28;20461;-58
2022/03/29 00:42:15;;;;;;;22.10;14.63;;;;;;;-148.33;100.00;56587.81;5071826;28;20103;-56
2022/03/29 00:44:41;;;;;;;20.30;14.50;;;;;;;-148.33;100.00;56587.81;5072087;28;20028;-56
2022/03/29 00:47:06;;;;;;;21.70;15.20;;;;;;;-148.33;100.00;56587.81;5071428;28;20020;-58
2022/03/29 00:49:32;;;;;;;18.48;13.70;;;;;;;-148.33;100.00;56587.81;5071484;28;20658;-57
2022/03/29 00:52:01;;;;;;;21.85;15.52;;;;;;;-148.33;100.00;56587.81;5071874;28;20377;-58
2022/03/29 00:54:28;;;;;;;20.45;16.17;;;;;;;-148.33;100.00;56587.81;5072039;28;20031;-58
2022/03/29 00:56:56;;;;;;;24.08;16.48;;;;;;;-148.33;100.00;56587.81;5070814;28;20038;-59
2022/03/29 00:59:22;;;;;;;21.25;17.45;;;;;;;-148.33;100.00;56587.81;5071273;28;20052;-58
2022/03/29 01:01:48;;;;;;;25.13;17.13;;;;;;;-148.33;100.00;56587.81;5071231;28;20060;-59
2022/03/29 01:04:13;;;;;;;22.17;16.15;;;;;;;-148.33;100.00;56587.81;5071532;28;20028;-58
2022/03/29 01:06:38;;;;;;;23.85;17.45;;;;;;;-148.33;100.00;56587.81;5070969;28;20326;-58
2022/03/29 01:09:04;;;;;;;20.80;16.65;;;;;;;-148.33;100.00;56587.81;5071314;28;20025;-58
2022/03/29 01:11:30;;;;;;;21.52;16.02;;;;;;;-148.33;100.00;56587.81;5071905;28;20028;-58
2022/03/29 01:13:55;;;;;;;21.60;15.73;;;;;;;-148.33;100.00;56587.81;5071010;28;20048;-58
2022/03/29 01:19:08;;;;;;;22.75;16.23;;;;;;;-148.33;100.00;56587.81;5071090;28;20119;-58
2022/03/29 01:21:37;;;;;;;22.23;17.08;;;;;;;-148.33;100.00;56587.81;5070924;28;20032;-57
2022/03/29 01:24:04;;;;;;;24.42;17.35;;;;;;;-148.33;100.00;56587.81;5070936;28;20044;-58
2022/03/29 01:26:30;;;;;;;23.45;16.52;;;;;;;-148.33;100.00;56587.81;5071096;28;20028;-57
2022/03/29 01:28:57;;;;;;;22.08;16.55;;;;;;;-148.33;100.00;56587.81;5071018;28;20028;-58
2022/03/29 01:31:24;;;;;;;24.63;17.27;;;;;;;-148.33;100.00;56587.81;5070403;28;20028;-58
2022/03/29 01:33:50;;;;;;;25.37;17.47;;;;;;;-148.33;100.00;56587.81;5070939;28;20021;-56
2022/03/29 01:36:15;;;;;;;22.30;16.85;;;;;;;-148.33;100.00;56587.81;5070899;28;20047;-58
2022/03/29 01:38:40;;;;;;;23.10;17.95;;;;;;;-148.33;100.00;56587.81;5070774;28;20035;-56
2022/03/29 01:41:06;;;;;;;24.02;19.20;;;;;;;-148.33;100.00;56587.81;5070865;28;20518;-57
2022/03/29 01:43:34;;;;;;;25.23;19.58;;;;;;;-148.33;100.00;56587.81;5070596;28;20071;-57
2022/03/29 01:45:59;;;;;;;25.23;18.55;;;;;;;-148.33;100.00;56587.81;5070018;28;20439;-57
2022/03/29 01:48:26;;;;;;;23.88;18.20;;;;;;;-148.33;100.00;56587.81;5070525;28;20366;-58
2022/03/29 01:50:51;;;;;;;31.63;18.90;;;;;;;-148.33;100.00;56587.81;5069415;28;20036;-56
2022/03/29 01:53:28;;;;;;;20.02;17.35;;;;;;;-148.33;100.00;56587.81;5069868;28;20496;-58
2022/03/29 01:55:54;;;;;;;28.90;20.37;;;;;;;-148.33;100.00;56587.81;5070994;28;20024;-57
2022/03/29 01:58:20;;;;;;;25.17;18.63;;;;;;;-148.33;100.00;56587.81;5070125;28;20027;-59
2022/03/29 02:00:45;;;;;;;25.75;18.38;;;;;;;-148.33;100.00;56587.81;5070033;28;20049;-58
2022/03/29 02:03:10;;;;;;;24.08;18.90;;;;;;;-148.33;100.00;56587.81;5070082;28;20576;-57
2022/03/29 02:05:36;;;;;;;29.33;21.83;;;;;;;-148.33;100.00;56587.81;5070102;28;20032;-58
2022/03/29 02:08:02;;;;;;;27.95;20.52;;;;;;;-148.33;100.00;56587.81;5069909;28;20085;-57
2022/03/29 02:10:27;;;;;;;27.73;21.80;;;;;;;-148.33;100.00;56587.81;5070101;28;20059;-56
2022/03/29 02:12:53;;;;;;;29.88;22.58;;;;;;;-148.33;100.00;56587.81;5070417;28;20526;-58
2022/03/29 02:15:19;;;;;;;25.27;21.13;;;;;;;-148.33;100.00;56587.81;5069505;28;20035;-58
2022/03/29 02:17:45;;;;;;;26.08;21.10;;;;;;;-148.33;100.00;56587.81;5070348;28;20291;-58
2022/03/29 02:20:13;;;;;;;26.83;22.23;;;;;;;-148.33;100.00;56587.81;5069482;28;20029;-58
2022/03/29 02:22:39;;;;;;;28.95;22.60;;;;;;;-148.33;100.00;56587.81;5069513;28;20139;-58
2022/03/29 02:25:05;;;;;;;31.58;23.27;;;;;;;-148.33;100.00;56587.81;5069657;28;20032;-58
2022/03/29 02:27:30;;;;;;;35.50;25.52;;;;;;;-148.33;100.00;56587.81;5069293;28;20028;-58
2022/03/29 02:29:56;;;;;;;34.65;24.95;;;;;;;-148.33;100.00;56587.81;5069106;28;20054;-58
2022/03/29 02:32:21;;;;;;;31.08;24.35;;;;;;;-148.33;100.00;56587.81;5062896;28;20075;-57
2022/03/29 02:34:46;;;;;;;29.77;25.77;;;;;;;-148.33;100.00;56587.81;5050704;28;20032;-58
2022/03/29 02:37:13;;;;;;;32.78;25.90;;;;;;;-148.33;100.00;56587.81;5056306;28;20476;-55
2022/03/29 02:39:38;;;;;;;29.60;24.45;;;;;;;-148.33;100.00;56587.81;5069539;28;20040;-58
2022/03/29 02:42:06;;;;;;;31.77;25.60;;;;;;;-148.33;100.00;56587.81;5069164;28;20028;-58
2022/03/29 02:44:31;;;;;;;33.67;26.98;;;;;;;-148.33;100.00;56587.81;5069035;28;20173;-57
2022/03/29 02:46:56;;;;;;;31.27;27.05;;;;;;;-148.33;100.00;56587.81;5069216;28;20111;-58
2022/03/29 02:49:23;;;;;;;33.15;26.17;;;;;;;-148.33;100.00;56587.81;5069712;28;20020;-58
2022/03/29 02:51:49;;;;;;;33.55;26.25;;;;;;;-148.33;100.00;56587.81;5069039;28;20078;-59
2022/03/29 02:54:14;;;;;;;33.33;27.08;;;;;;;-148.33;100.00;56587.81;5068555;28;20044;-58
2022/03/29 02:56:40;;;;;;;38.38;28.95;;;;;;;-148.33;100.00;56587.81;5069067;28;20486;-58
2022/03/29 02:59:05;;;;;;;35.92;28.77;;;;;;;-148.33;100.00;56587.81;5069532;28;20035;-59
2022/03/29 03:01:30;;;;;;;33.08;28.27;;;;;;;-148.33;100.00;56587.81;5069079;28;20063;-56
2022/03/29 03:03:57;;;;;;;35.75;29.88;;;;;;;-148.33;100.00;56587.81;5068044;28;20032;-55
2022/03/29 03:06:22;;;;;;;39.25;30.50;;;;;;;-148.33;100.00;56587.81;5069151;28;20385;-57
2022/03/29 03:08:47;;;;;;;37.17;30.60;;;;;;;-148.33;100.00;56587.81;5068721;28;20103;-57
2022/03/29 03:11:13;;;;;;;40.05;31.40;;;;;;;-148.33;100.00;56587.81;5068444;28;20151;-57
2022/03/29 03:13:38;;;;;;;40.70;31.30;;;;;;;-148.33;100.00;56587.81;5068811;28;20029;-57
2022/03/29 03:16:04;;;;;;;40.60;30.17;;;;;;;-148.33;100.00;56587.81;5068903;28;20063;-58
2022/03/29 03:18:29;;;;;;;41.40;32.63;;;;;;;-148.33;100.00;56587.81;5068613;28;20103;-58
2022/03/29 03:20:54;;;;;;;38.17;31.52;;;;;;;-148.33;100.00;56587.81;5068356;28;20036;-58
2022/03/29 03:23:20;;;;;;;40.63;32.42;;;;;;;-148.33;100.00;56587.81;5068862;28;20038;-58
2022/03/29 03:25:45;;;;;;;39.58;31.30;;;;;;;-148.33;100.00;56587.81;5069090;28;20020;-57
2022/03/29 03:28:10;;;;;;;39.25;31.52;;;;;;;-148.33;100.00;56587.81;5069318;28;20062;-58
2022/03/29 03:30:36;;;;;;;42.05;33.97;;;;;;;-148.33;100.00;56587.81;5068316;28;20428;-58
2022/03/29 03:33:01;;;;;;;41.38;32.30;;;;;;;-148.33;100.00;56587.81;5068734;28;20028;-56
2022/03/29 03:35:26;;;;;;;39.00;33.22;;;;;;;-148.33;100.00;56587.81;5068552;28;20024;-56
2022/03/29 03:37:51;;;;;;;38.97;33.15;;;;;;;-148.33;100.00;56587.81;5068231;28;20403;-57
2022/03/29 03:40:17;;;;;;;40.80;34.35;;;;;;;-148.33;100.00;56587.81;5049842;28;20039;-58
2022/03/29 03:42:42;;;;;;;41.30;33.72;;;;;;;-148.33;100.00;56587.81;5068613;28;20028;-58
2022/03/29 03:45:09;;;;;;;43.72;34.95;;;;;;;-148.33;100.00;56587.81;5068711;28;20150;-58
2022/03/29 03:47:35;;;;;;;44.78;34.67;;;;;;;-148.33;100.00;56587.81;5068480;28;20123;-56
2022/03/29 03:50:01;;;;;;;39.47;33.65;;;;;;;-148.33;100.00;56587.81;5067888;28;20147;-58
2022/03/29 03:52:27;;;;;;;45.60;35.03;;;;;;;-148.33;100.00;56587.81;5068322;28;20465;-58
2022/03/29 03:54:54;;;;;;;47.05;35.83;;;;;;;-148.33;100.00;56587.81;5068399;28;20172;-58
2022/03/29 03:57:20;;;;;;;45.22;35.88;;;;;;;-148.33;100.00;56587.81;5068098;28;20482;-54
2022/03/29 03:59:48;;;;;;;43.28;37.20;;;;;;;-148.33;100.00;56587.81;5068406;28;20140;-57
2022/03/29 04:02:14;;;;;;;43.88;35.85;;;;;;;-148.33;100.00;56587.81;5067236;28;20490;-57
2022/03/29 04:04:39;;;;;;;41.55;36.55;;;;;;;-148.33;100.00;56587.81;5068054;28;20059;-57
2022/03/29 04:07:05;;;;;;;44.78;37.97;;;;;;;-148.33;100.00;56587.81;5068575;28;20028;-58
2022/03/29 04:09:31;;;;;;;46.63;38.55;;;;;;;-148.33;100.00;56587.81;5068549;28;20075;-57
2022/03/29 04:11:56;;;;;;;42.88;36.17;;;;;;;-148.33;100.00;56587.81;5068016;28;20117;-57
2022/03/29 04:14:21;;;;;;;45.55;36.33;;;;;;;-148.33;100.00;56587.81;5066854;28;20024;-57
2022/03/29 04:16:46;;;;;;;42.50;36.47;;;;;;;-148.33;100.00;56587.81;5067766;28;20078;-58
2022/03/29 04:19:12;;;;;;;48.47;38.28;;;;;;;-148.33;100.00;56587.81;5067938;28;20025;-58
2022/03/29 04:21:39;;;;;;;48.47;38.22;;;;;;;-148.33;100.00;56587.81;5067887;28;20033;-57
2022/03/29 04:24:05;;;;;;;47.00;37.07;;;;;;;-148.33;100.00;56587.81;5068067;28;20029;-57
2022/03/29 04:26:31;;;;;;;48.67;38.43;;;;;;;-148.33;100.00;56587.81;5067399;28;20162;-57
2022/03/29 04:28:56;;;;;;;51.50;40.03;;;;;;;-148.33;100.00;56587.81;5068406;28;20039;-58
2022/03/29 04:31:22;;;;;;;47.00;39.15;;;;;;;-148.33;100.00;56587.81;5038989;28;20075;-59
2022/03/29 04:33:47;;;;;;;51.30;40.75;;;;;;;-148.33;100.00;56587.81;5067525;28;20029;-57
2022/03/29 04:36:12;;;;;;;47.88;40.88;;;;;;;-148.33;100.00;56587.81;5063051;28;20025;-58
2022/03/29 04:38:38;;;;;;;48.53;39.88;;;;;;;-148.33;100.00;56587.81;5048359;28;20570;-57
2022/03/29 04:41:05;;;;;;;50.25;41.38;;;;;;;-148.33;100.00;56587.81;5048148;28;20021;-56
2022/03/29 04:43:30;;;;;;;52.92;41.55;;;;;;;-148.33;100.00;56587.81;5048271;28;20460;-58
2022/03/29 04:45:56;;;;;;;49.05;40.63;;;;;;;-148.33;100.00;56587.81;5048365;28;20029;-57
2022/03/29 04:48:21;;;;;;;49.23;41.77;;;;;;;-148.33;100.00;56587.81;5048619;28;20025;-57
2022/03/29 04:50:46;;;;;;;47.97;39.38;;;;;;;-148.33;100.00;56587.81;5047990;28;20021;-59
2022/03/29 04:53:13;;;;;;;49.92;41.45;;;;;;;-148.33;100.00;56587.81;5048745;28;20685;-57
2022/03/29 04:55:38;;;;;;;49.73;42.00;;;;;;;-148.33;100.00;56587.81;5064130;28;20535;-56
2022/03/29 04:58:04;;;;;;;52.33;41.47;;;;;;;-148.33;100.00;56587.81;5067176;28;20027;-56
2022/03/29 05:00:29;;;;;;;51.88;40.65;;;;;;;-148.33;100.00;56587.81;5067404;28;20366;-58
2022/03/29 05:02:54;;;;;;;50.63;41.50;;;;;;;-148.33;100.00;56587.81;5066974;28;20021;-59
2022/03/29 05:05:20;;;;;;;49.90;41.75;;;;;;;-148.33;100.00;56587.81;5048665;28;20028;-58
2022/03/29 05:07:46;;;;;;;48.30;40.67;;;;;;;-148.33;100.00;56587.81;5066436;28;20029;-58
2022/03/29 05:10:13;;;;;;;53.65;42.70;;;;;;;-148.33;100.00;56587.81;5066992;28;20035;-54
2022/03/29 05:12:49;;;;;;;53.30;41.97;;;;;;;-148.33;100.00;56587.81;5059749;28;20107;-58
2022/03/29 05:15:18;;;;;;;56.28;42.88;;;;;;;-148.33;100.00;56587.81;5067031;28;20431;-56
2022/03/29 05:17:44;;;;;;;55.08;44.17;;;;;;;-148.33;100.00;56587.81;5065537;28;20424;-56
2022/03/29 05:20:11;;;;;;;58.60;45.17;;;;;;;-148.33;100.00;56587.81;5064858;28;20428;-58
2022/03/29 05:22:48;;;;;;;59.77;47.77;;;;;;;-148.33;100.00;56587.81;5056690;28;20029;-57
2022/03/29 05:25:15;;;;;;;56.93;45.23;;;;;;;-148.33;100.00;56587.81;5045740;28;20074;-57
2022/03/29 05:27:40;;;;;;;62.67;45.35;;;;;;;-148.33;100.00;56587.81;5047890;28;20028;-54
2022/03/29 05:30:07;;;;;;;62.73;46.37;;;;;;;-148.33;100.00;56587.81;5053516;28;20029;-58
2022/03/29 05:32:32;;;;;;;64.13;47.53;;;;;;;-148.33;100.00;56587.81;5068773;28;20039;-57
2022/03/29 05:34:57;;;;;;;62.70;46.08;;;;;;;-148.33;100.00;56587.81;5069942;28;20032;-56
2022/03/29 05:37:23;;;;;;;60.33;45.27;;;;;;;-148.33;100.00;56587.81;5062553;28;20025;-52
2022/03/29 05:39:48;;;;;;;63.90;46.43;;;;;;;-148.33;100.00;56587.81;5052406;28;20059;-58
2022/03/29 05:42:13;;;;;;;69.05;47.17;;;;;;;-148.33;100.00;56587.81;5052109;28;20041;-59
2022/03/29 05:44:39;;;;;;;64.13;48.33;;;;;;;-148.33;100.00;56587.81;5070830;28;20082;-58
2022/03/29 05:49:49;;;;;;;69.47;47.70;;;;;;;-148.33;100.00;56587.81;5063120;28;20114;-57
2022/03/29 05:52:14;;;;;;;68.40;49.47;;;;;;;-148.33;100.00;56587.81;5064899;28;20063;-57
2022/03/29 05:54:44;;;;;;;67.53;48.57;;;;;;;-148.33;100.00;56587.81;5054730;28;20047;-58
2022/03/29 05:57:11;;;;;;;66.00;47.60;;;;;;;-148.33;100.00;56587.81;5049355;28;20029;-58
2022/03/29 05:59:36;;;;;;;64.53;47.33;;;;;;;-148.33;100.00;56587.81;5049207;28;20033;-57
2022/03/29 06:02:04;;;;;;;69.67;48.67;;;;;;;-148.33;100.00;56587.81;5049229;28;20064;-58
2022/03/29 06:04:31;;;;;;;66.60;48.10;;;;;;;-148.33;100.00;56587.81;5049659;28;20048;-56
2022/03/29 06:06:56;;;;;;;65.53;48.35;;;;;;;-148.33;100.00;56587.81;5050768;28;20090;-56
2022/03/29 06:09:21;;;;;;;72.37;51.03;;;;;;;-148.33;100.00;56587.81;5050646;28;20048;-55
2022/03/29 06:11:47;;;;;;;74.93;50.05;;;;;;;-148.33;100.00;56587.81;5050704;28;20040;-58
2022/03/29 06:14:14;;;;;;;73.40;48.40;;;;;;;-148.33;100.00;56587.81;5049753;28;20025;-59
2022/03/29 06:16:41;;;;;;;71.72;49.88;;;;;;;-148.33;100.00;56587.81;5050018;28;20082;-57
2022/03/29 06:19:06;;;;;;;73.97;50.13;;;;;;;-148.33;100.00;56587.81;5049896;28;20025;-56
2022/03/29 06:21:31;;;;;;;73.38;49.40;;;;;;;-148.33;100.00;56587.81;5049544;28;20025;-57
2022/03/29 06:23:57;;;;;;;71.33;48.73;;;;;;;-148.33;100.00;56587.81;5049763;28;20105;-57
2022/03/29 06:26:22;;;;;;;68.73;47.93;;;;;;;-148.33;100.00;56587.81;5050028;28;20048;-58
2022/03/29 06:28:48;;;;;;;71.40;50.40;;;;;;;-148.33;100.00;56587.81;5050430;28;20350;-58
2022/03/29 06:31:13;;;;;;;72.07;48.47;;;;;;;-148.33;100.00;56587.81;5049405;28;20025;-58
2022/03/29 06:33:38;;;;;;;74.20;49.80;;;;;;;-148.33;100.00;56587.81;5049691;28;20448;-57
2022/03/29 06:36:04;;;;;;;76.03;49.70;;;;;;;-148.33;100.00;56587.81;5049691;28;20057;-57
2022/03/29 06:38:31;;;;;;;73.43;51.63;;;;;;;-148.33;100.00;56587.81;5048831;28;20025;-55
2022/03/29 06:40:58;;;;;;;80.20;52.57;;;;;;;-148.33;100.00;56587.81;5049659;28;20048;-58
2022/03/29 06:43:23;;;;;;;79.70;51.03;;;;;;;-148.33;100.00;56587.81;5049756;28;20036;-58
2022/03/29 06:45:49;;;;;;;87.67;52.97;;;;;;;-148.33;100.00;56587.81;5049821;28;20031;-58
2022/03/29 06:48:14;;;;;;;85.20;53.67;;;;;;;-148.33;100.00;56587.81;5049076;28;20017;-57
2022/03/29 06:50:39;;;;;;;82.73;52.87;;;;;;;-148.33;100.00;56587.81;5049015;28;20107;-58
2022/03/29 06:53:06;;;;;;;83.33;52.80;;;;;;;-148.33;100.00;56587.81;5049291;28;20021;-56
2022/03/29 06:55:32;;;;;;;81.63;52.03;;;;;;;-148.33;100.00;56587.81;5048791;28;20021;-56
2022/03/29 06:57:57;;;;;;;81.57;53.50;;;;;;;-148.33;100.00;56587.81;5049422;28;20363;-56
2022/03/29 07:00:23;;;;;;;85.97;53.00;;;;;;;-148.33;100.00;56587.81;5049598;28;20056;-58
2022/03/29 07:02:49;;;;;;;86.60;52.47;;;;;;;-148.33;100.00;56587.81;5049062;28;20052;-58
2022/03/29 07:05:14;;;;;;;93.70;55.80;;;;;;;-148.33;100.00;56587.81;5048906;28;20025;-58
2022/03/29 07:07:41;;;;;;;92.80;53.97;;;;;;;-148.33;100.00;56587.81;5048909;28;20032;-58
2022/03/29 07:12:59;;;;;;;86.90;51.78;;;;;;;-148.33;100.00;56587.81;5049454;28;20283;-57
2022/03/29 07:15:25;;;;;;;86.90;51.22;;;;;;;-148.33;100.00;56587.81;5049040;28;20206;-57
2022/03/29 07:17:51;;;;;;;87.32;50.90;;;;;;;-148.33;100.00;56587.81;5048141;28;20039;-57
2022/03/29 07:20:19;;;;;;;77.83;49.67;;;;;;;-148.33;100.00;56587.81;5048427;28;20029;-55
2022/03/29 07:22:45;;;;;;;81.28;50.97;;;;;;;-148.33;100.00;56587.81;5048967;28;20525;-57
2022/03/29 07:25:12;;;;;;;80.38;51.60;;;;;;;-148.33;100.00;56587.81;5048961;28;20362;-58
2022/03/29 07:27:37;;;;;;;81.90;51.37;;;;;;;-148.33;100.00;56587.81;5048204;28;20028;-55
2022/03/29 07:30:05;;;;;;;80.63;52.67;;;;;;;-148.33;100.00;56587.81;5049296;28;20032;-56
2022/03/29 07:32:30;;;;;;;81.75;52.53;;;;;;;-148.33;100.00;56587.81;5048767;28;20059;-57
2022/03/29 07:34:56;;;;;;;80.22;51.53;;;;;;;-148.33;100.00;56587.81;5048365;28;20056;-56
2022/03/29 07:37:22;;;;;;;81.68;51.28;;;;;;;-148.33;100.00;56587.81;5048478;28;20025;-58
2022/03/29 07:39:48;;;;;;;83.47;51.08;;;;;;;-148.33;100.00;56587.81;5048221;28;20064;-57
2022/03/29 07:42:14;;;;;;;87.50;51.60;;;;;;;-148.33;100.00;56587.81;5047872;28;20104;-57
2022/03/29 07:44:39;;;;;;;92.63;54.45;;;;;;;-148.33;100.00;56587.81;5048174;28;20108;-57
2022/03/29 07:47:04;;;;;;;80.22;49.30;;;;;;;-148.33;100.00;56587.81;5048398;28;20033;-57
2022/03/29 07:49:30;;;;;;;86.30;52.00;;;;;;;-148.33;100.00;56587.81;5048351;28;20021;-58
2022/03/29 07:51:56;;;;;;;83.38;50.47;;;;;;;-148.33;100.00;56587.81;5048857;28;20124;-57
2022/03/29 07:54:21;;;;;;;83.45;49.80;;;;;;;-148.33;100.00;56587.81;5048232;28;20111;-57
2022/03/29 07:56:47;;;;;;;89.30;52.90;;;;;;;-148.33;100.00;56587.81;5047918;28;20104;-56
2022/03/29 07:59:12;;;;;;;88.10;51.47;;;;;;;-148.33;100.00;56587.81;5048246;28;20029;-56
2022/03/29 08:01:37;;;;;;;87.93;51.30;;;;;;;-148.33;100.00;56587.81;5048081;28;20041;-57
2022/03/29 08:04:04;;;;;;;85.63;51.63;;;;;;;-148.33;100.00;56587.81;5048000;28;20025;-56
2022/03/29 08:06:30;;;;;;;95.55;51.80;;;;;;;-148.33;100.00;56587.81;5047676;28;20111;-56
2022/03/29 08:08:56;;;;;;;92.15;51.28;;;;;;;-148.33;100.00;56587.81;5047331;28;20028;-55
2022/03/29 08:11:22;;;;;;;93.97;51.38;;;;;;;-148.33;100.00;56587.81;5048147;28;20528;-58
2022/03/29 08:13:48;;;;;;;96.10;52.80;;;;;;;-148.33;100.00;56587.81;5048423;28;20062;-57
2022/03/29 08:16:14;;;;;;;85.07;50.75;;;;;;;-148.33;100.00;56587.81;5047857;28;20051;-56
2022/03/29 08:18:39;;;;;;;90.10;50.85;;;;;;;-148.33;100.00;56587.81;5048050;28;20025;-57
2022/03/29 08:21:47;;;;;;;80.65;48.88;;;;;;;-148.33;100.00;56587.81;5047428;28;20040;-54
2022/03/29 08:23:50;;;;;;;84.55;50.58;;;;;;;-148.33;100.00;56587.81;5047745;28;20442;-54
2022/03/29 08:26:16;;;;;;;88.60;51.10;;;;;;;-148.33;100.00;56587.81;5047936;28;20505;-58
2022/03/29 08:28:41;;;;;;;86.75;52.40;;;;;;;-148.33;100.00;56587.81;5048017;28;20112;-58
2022/03/29 08:31:06;;;;;;;91.63;54.20;;;;;;;-148.33;100.00;56587.81;5047657;28;20079;-58
2022/03/29 08:33:31;;;;;;;90.97;52.00;;;;;;;-148.33;100.00;56587.81;5047505;28;20326;-57
2022/03/29 08:35:57;;;;;;;94.32;52.17;;;;;;;-148.33;100.00;56587.81;5047635;28;20396;-57
2022/03/29 08:38:24;;;;;;;91.95;52.90;;;;;;;-148.33;100.00;56587.81;5047490;28;20017;-58
2022/03/29 08:40:54;;;;;;;90.78;52.30;;;;;;;-148.33;100.00;56587.81;5048188;28;20031;-57
2022/03/29 08:43:20;;;;;;;87.28;51.72;;;;;;;-148.33;100.00;56587.81;5029172;28;20453;-56
2022/03/29 08:45:48;;;;;;;88.32;51.45;;;;;;;-148.33;100.00;56587.81;5047572;28;20057;-55
2022/03/29 08:48:14;;;;;;;81.80;50.35;;;;;;;-148.33;100.00;56587.81;5047895;28;20372;-58
2022/03/29 08:50:40;;;;;;;94.95;51.05;;;;;;;-148.33;100.00;56587.81;5047244;28;20032;-56
2022/03/29 08:53:07;;;;;;;93.55;51.67;;;;;;;-148.33;100.00;56587.81;5047438;28;20029;-57
2022/03/29 08:55:33;;;;;;;94.47;53.80;;;;;;;-148.33;100.00;56587.81;5047657;28;20412;-57
2022/03/29 08:57:58;;;;;;;89.43;53.40;;;;;;;-148.33;100.00;56587.81;5047292;28;20033;-55
2022/03/29 09:00:24;;;;;;;97.15;53.55;;;;;;;-148.33;100.00;56587.81;5047376;28;20017;-57
2022/03/29 09:02:50;;;;;;;94.82;55.35;;;;;;;-148.33;100.00;56587.81;5052186;28;20059;-57
2022/03/29 09:05:20;;;;;;;97.75;53.38;;;;;;;-148.33;100.00;56587.81;5051075;28;20393;-58
2022/03/29 09:07:48;;;;;;;96.93;53.78;;;;;;;-148.33;100.00;56587.81;5051462;28;20536;-57
2022/03/29 09:10:14;;;;;;;89.68;51.42;;;;;;;-148.33;100.00;56587.81;5051391;28;20013;-57
2022/03/29 09:12:39;;;;;;;102.88;54.83;;;;;;;-148.33;100.00;56587.81;5050832;28;20389;-56
2022/03/29 09:15:05;;;;;;;102.93;54.95;;;;;;;-148.33;100.00;56587.81;5051356;28;20033;-56
2022/03/29 09:17:38;;;;;;;110.32;58.15;;;;;;;-148.33;100.00;56587.81;5051466;28;20021;-57
2022/03/29 09:20:12;;;;;;;110.25;58.60;;;;;;;-148.33;100.00;56587.81;5050678;28;20354;-56
2022/03/29 09:22:39;;;;;;;116.57;61.85;;;;;;;-148.33;100.00;56587.81;5051103;28;20056;-58
2022/03/29 09:25:05;;;;;;;122.25;60.97;;;;;;;-148.33;100.00;56587.81;5051018;28;20091;-58
2022/03/29 09:27:47;;;;;;;116.53;60.30;;;;;;;-148.33;100.00;56587.81;5051002;28;20029;-57
2022/03/29 09:30:13;;;;;;;120.80;62.25;;;;;;;-148.33;100.00;56587.81;5050567;28;20531;-58
2022/03/29 09:32:55;;;;;;;106.63;58.17;;;;;;;-148.33;100.00;56587.81;5050826;28;20144;-55
2022/03/29 09:35:21;;;;;;;105.70;57.42;;;;;;;-148.33;100.00;56587.81;5050059;28;20028;-57
2022/03/29 09:37:46;;;;;;;106.63;58.03;;;;;;;-148.33;100.00;56587.81;5050626;28;20025;-58
2022/03/29 09:40:12;;;;;;;105.80;60.10;;;;;;;-148.33;100.00;56587.81;5051098;28;20025;-55
2022/03/29 09:42:41;;;;;;;96.68;57.05;;;;;;;-148.33;100.00;56587.81;5050814;28;20071;-57
2022/03/29 09:45:08;;;;;;;96.90;55.03;;;;;;;-148.33;100.00;56587.81;5050078;28;20025;-56
2022/03/29 09:47:34;;;;;;;92.55;54.08;;;;;;;-148.33;100.00;56587.81;5050797;28;20025;-58
2022/03/29 09:50:02;;;;;;;85.47;52.80;;;;;;;-148.33;100.00;56587.81;5032650;28;20048;-57
2022/03/29 09:52:30;;;;;;;82.82;51.92;;;;;;;-148.33;100.00;56587.81;5049879;28;20471;-58
2022/03/29 09:55:21;;;;;;;75.50;49.70;;;;;;;-148.33;100.00;56587.81;5050439;28;20035;-57
2022/03/29 09:57:46;;;;;;;82.03;50.03;;;;;;;-148.33;100.00;56587.81;5050779;28;20025;-58
2022/03/29 10:00:33;;;;;;;72.82;48.40;;;;;;;-148.33;100.00;56587.81;5050106;28;20028;-58
2022/03/29 10:03:01;;;;;;;70.53;45.72;;;;;;;-148.33;100.00;56587.81;5050081;28;20479;-58
2022/03/29 10:05:26;;;;;;;73.90;48.33;;;;;;;-148.33;100.00;56587.81;5049490;28;20104;-58
2022/03/29 10:09:25;;;;;;;68.10;45.83;;;;;;;-148.33;100.00;56587.81;5050100;28;20170;-58
2022/03/29 10:10:44;;;;;;;;;;;;;;;-148.33;100.00;56587.81;5050416;28;20037;-55
2022/03/29 10:13:10;;;;;;;69.80;45.30;;;;;;;-148.33;100.00;56587.81;5048648;28;20369;-57
2022/03/29 10:15:38;;;;;;;65.85;44.88;;;;;;;-148.33;100.00;56587.81;5049688;28;20063;-57
2022/03/29 10:18:03;;;;;;;70.65;47.30;;;;;;;-148.33;100.00;56587.81;5049868;28;20033;-57
2022/03/29 10:20:30;;;;;;;64.53;45.53;;;;;;;-148.33;100.00;56587.81;5049714;28;20025;-58
2022/03/29 10:22:57;;;;;;;62.75;44.53;;;;;;;-148.33;100.00;56587.81;5049484;28;20029;-57
2022/03/29 10:25:23;;;;;;;68.63;44.88;;;;;;;-148.33;100.00;56587.81;5050046;28;20037;-55
2022/03/29 10:27:50;;;;;;;68.78;46.90;;;;;;;-148.33;100.00;56587.81;5049486;28;20592;-56
2022/03/29 10:30:44;;;;;;;67.18;46.58;;;;;;;-148.33;100.00;56587.81;5049756;28;20497;-56
2022/03/29 10:33:18;;;;;;;64.60;44.83;;;;;;;-148.33;100.00;56587.81;5028346;28;20455;-56
2022/03/29 10:35:59;;;;;;;64.00;45.42;;;;;;;-148.33;100.00;56587.81;5049924;28;20060;-54
2022/03/29 10:38:43;;;;;;;63.42;44.42;;;;;;;-148.33;100.00;56587.81;5050069;28;20029;-55
2022/03/29 10:41:26;;;;;;;57.55;42.45;;;;;;;-148.33;100.00;56587.81;5049496;28;20041;-57
2022/03/29 10:43:53;;;;;;;59.10;42.80;;;;;;;-148.33;100.00;56587.81;5049528;28;20098;-55
2022/03/29 10:46:42;;;;;;;58.90;42.03;;;;;;;-148.33;100.00;56587.81;5049917;28;20130;-56
2022/03/29 10:49:22;;;;;;;52.35;40.28;;;;;;;-148.33;100.00;56587.81;5049559;28;20505;-55
2022/03/29 10:51:57;;;;;;;55.60;42.60;;;;;;;-148.33;100.00;56587.81;5049234;28;20411;-56
2022/03/29 10:54:35;;;;;;;54.40;41.53;;;;;;;-148.33;100.00;56587.81;5049947;28;20454;-54
2022/03/29 10:57:20;;;;;;;53.42;41.72;;;;;;;-148.33;100.00;56587.81;5048994;28;20027;-57
2022/03/29 10:59:50;;;;;;;53.72;41.70;;;;;;;-148.33;100.00;56587.81;5048899;28;20033;-55
2022/03/29 11:02:20;;;;;;;56.20;41.53;;;;;;;-148.33;100.00;56587.81;5049091;28;20482;-58